Airfield :
LOGIN :

Register | Disclaimer

   EN    FR    IT 

 










Legend :    VFR   Marginal VFR   IFR   Intensive IFR   Very Intensive IFR
Visi :
Ceiling :
>= 8 km
>= 3000ft
5 to 8 km
1000 to 3000 ft
1500m to 5 km
500 to 1000 ft
800 to 1500m
200 to 500 ft
< 800m
< 200 ft
Symbols :   Thunderstorms  Fog  Heavy snow  Heavy precipitations  Wind > 20 kt
SIGMETs :     Misc.  Thunderstorms  Icing  Turbulence  Mountain Waves  Volcanic Ashes







- Airport Elevation : 1276 ft
- IATA code : STR


EDDS - Stuttgart

CURRENT METAR :
  • 231120Z 33007KT 290V020 9999 FEW036 BKN043 16/06 Q1025 NOSIG

EXPIRED METARs :
  • 231050Z 32008KT 270V020 9999 FEW036 BKN045 15/07 Q1026 NOSIG
  • 231020Z 34008KT 300V040 9999 SCT036 BKN046 15/07 Q1026 NOSIG
  • 230950Z 36005KT 320V050 9999 BKN036 15/06 Q1026 NOSIG
  • 230920Z 34006KT 300V020 9999 BKN032 15/07 Q1026 NOSIG
  • 230850Z 30004KT 200V360 9999 BKN028 14/08 Q1026 NOSIG

TAF TAF EDDS
Valid from the 23 at 06:00 until the 24 at 06:00 UTC


230500Z 2306/2406 VRB03KT 9999 SCT040
BECMG 2306/2309 32008KT
BECMG 2318/2321 VRB03KT
No reported NOTAMs for that airfield.



MET'MAP, your aeronautical weather chart ! - Copyright ORBIFLY December 2007 - Disclaimer

ORBIFLY MET'MAP TEAM :

Programming & Development : Alexandra Zaïnal
Concept & Development : Baudouin d'Aumeries
Co-Development & Prog : Marc-Olivier Méhu
Technical & hardware support : Manuel Goepfert

Contact : metmap@orbifly.com




SOURCES & CREDITS :

   NOAA